Time;durP1;ratioP1;P1;durP2;ratioP2;P2;SDS_P1;SDS_P2;PMS_P1;PMS_P2;Temp;Humidity;BMP_temperature;BMP_pressure;BME280_temperature;BME280_humidity;BME280_pressure;Samples;Min_cycle;Max_cycle;Signal;HPM_P1;HPM_P2
2022/06/02 00:02:36;;;;;;;;;;;;;;;17.12;100.00;99556.33;1702038;84;20087;-69
2022/06/02 00:05:12;;;;;;;;;;;;;;;17.11;100.00;99554.72;1701955;84;20143;-70
2022/06/02 00:08:01;;;;;;;;;;;;;;;17.12;100.00;99552.75;1639809;86;21299;-70
2022/06/02 00:10:53;;;;;;;;;;;;;;;17.14;100.00;99562.33;1702039;84;20099;-70
2022/06/02 00:13:24;;;;;;;;;;;;;;;17.16;100.00;99551.67;1683789;84;20107;-70
2022/06/02 00:15:57;;;;;;;;;;;;;;;17.20;100.00;99539.28;1669656;84;20734;-69
2022/06/02 00:18:32;;;;;;;;;;;;;;;17.21;100.00;99535.34;1701959;83;20151;-69
2022/06/02 00:21:14;;;;;;;;;;;;;;;17.23;100.00;99537.17;1702751;83;20716;-69
2022/06/02 00:23:48;;;;;;;;;;;;;;;17.26;100.00;99533.68;1707599;84;20099;-70
2022/06/02 00:26:33;;;;;;;;;;;;;;;17.24;100.00;99536.59;1707002;84;20976;-70
2022/06/02 00:29:18;;;;;;;;;;;;;;;17.20;100.00;99530.96;1698720;84;20133;-70
2022/06/02 00:32:11;;;;;;;;;;;;;;;17.18;100.00;99525.55;1698787;84;20187;-70
2022/06/02 00:35:02;;;;;;;;;;;;;;;17.19;100.00;99523.00;1698780;84;21087;-70
2022/06/02 00:37:57;;;;;;;;;;;;;;;17.15;100.00;99522.33;1698809;84;20115;-70
2022/06/02 00:40:26;;;;;;;;;;;;;;;17.14;100.00;99515.75;1698707;84;20116;-70
2022/06/02 00:43:15;;;;;;;;;;;;;;;17.11;100.00;99519.25;1698880;84;20176;-70
2022/06/02 00:45:43;;;;;;;;;;;;;;;17.06;100.00;99513.39;1698790;84;20144;-70
2022/06/02 00:48:22;;;;;;;;;;;;;;;17.02;100.00;99510.31;1698718;84;21149;-70
2022/06/02 00:51:03;;;;;;;;;;;;;;;16.99;100.00;99512.41;1698626;84;20143;-70
2022/06/02 00:53:42;;;;;;;;;;;;;;;16.96;100.00;99502.84;1679075;84;20478;-70
2022/06/02 00:59:25;;;;;;;;;;;;;;;16.88;100.00;99509.95;1698733;84;20107;-71
2022/06/02 01:01:53;;;;;;;;;;;;;;;16.85;100.00;99510.09;1706749;84;21146;-71
2022/06/02 01:04:19;;;;;;;;;;;;;;;16.86;100.00;99520.60;1706876;84;20110;-70
2022/06/02 01:07:05;;;;;;;;;;;;;;;16.83;100.00;99513.22;1706762;84;20450;-71
2022/06/02 01:09:47;;;;;;;;;;;;;;;16.80;100.00;99506.20;1706858;84;20179;-71
2022/06/02 01:12:20;;;;;;;;;;;;;;;16.75;100.00;99497.58;1678354;85;20121;-70
2022/06/02 01:15:08;;;;;;;;;;;;;;;16.72;100.00;99502.48;1710740;84;21132;-70
2022/06/02 01:17:44;;;;;;;;;;;;;;;16.72;100.00;99497.52;1710821;84;20101;-69
2022/06/02 01:20:28;;;;;;;;;;;;;;;16.72;100.00;99493.36;1706706;84;20126;-71
2022/06/02 01:23:27;;;;;;;;;;;;;;;16.74;100.00;99498.77;1676493;84;20110;-72
2022/06/02 01:26:12;;;;;;;;;;;;;;;16.76;100.00;99490.87;1677809;85;20081;-72
2022/06/02 01:28:42;;;;;;;;;;;;;;;16.77;100.00;99490.28;1650894;86;21160;-72
2022/06/02 01:31:27;;;;;;;;;;;;;;;16.77;100.00;99487.52;1691135;85;20111;-72
2022/06/02 01:34:03;;;;;;;;;;;;;;;16.74;100.00;99489.65;1699298;84;20075;-71
2022/06/02 01:36:39;;;;;;;;;;;;;;;16.74;100.00;99488.27;1699193;84;20146;-71
2022/06/02 01:39:18;;;;;;;;;;;;;;;16.74;100.00;99488.27;1699458;84;20143;-71
2022/06/02 01:42:05;;;;;;;;;;;;;;;16.73;100.00;99484.69;1699186;84;21150;-71
2022/06/02 01:44:58;;;;;;;;;;;;;;;16.71;100.00;99482.85;1699269;84;37451;-71
2022/06/02 01:47:31;;;;;;;;;;;;;;;16.68;100.00;99482.77;1692801;85;20142;-71
2022/06/02 01:50:04;;;;;;;;;;;;;;;16.65;100.00;99486.25;1698351;84;20139;-71
2022/06/02 01:52:41;;;;;;;;;;;;;;;16.63;100.00;99481.03;1683730;85;20116;-71
2022/06/02 01:55:34;;;;;;;;;;;;;;;16.60;100.00;99479.56;1683851;84;21270;-71
2022/06/02 01:58:06;;;;;;;;;;;;;;;16.55;100.00;99483.98;1683673;84;20109;-70
2022/06/02 02:00:34;;;;;;;;;;;;;;;16.50;100.00;99492.78;1683916;85;20125;-70
2022/06/02 02:03:15;;;;;;;;;;;;;;;16.48;100.00;99485.98;1683967;85;20483;-70
2022/06/02 02:05:48;;;;;;;;;;;;;;;16.44;100.00;99490.05;1684027;84;20153;-70
2022/06/02 02:08:30;;;;;;;;;;;;;;;16.38;100.00;99501.16;1684092;85;21285;-70
2022/06/02 02:11:20;;;;;;;;;;;;;;;16.28;100.00;99493.38;1683905;85;20124;-70
2022/06/02 02:14:23;;;;;;;;;;;;;;;16.25;100.00;99502.97;1619682;88;20161;-69
2022/06/02 02:17:04;;;;;;;;;;;;;;;16.25;100.00;99508.51;1692270;84;20143;-70
2022/06/02 02:19:59;;;;;;;;;;;;;;;16.26;100.00;99516.47;1693905;84;20115;-71
2022/06/02 02:22:41;;;;;;;;;;;;;;;16.31;100.00;99510.67;1693736;84;21153;-70
2022/06/02 02:25:16;;;;;;;;;;;;;;;16.37;100.00;99522.30;1693878;84;20123;-70
2022/06/02 02:28:02;;;;;;;;;;;;;;;16.46;100.00;99535.41;1696111;83;20183;-69
2022/06/02 02:30:36;;;;;;;;;;;;;;;16.54;100.00;99530.86;1699346;84;20685;-70
2022/06/02 02:33:24;;;;;;;;;;;;;;;16.59;100.00;99536.95;1699001;84;20181;-71
2022/06/02 02:36:08;;;;;;;;;;;;;;;16.62;100.00;99534.05;1699348;84;20494;-71
2022/06/02 02:38:44;;;;;;;;;;;;;;;16.59;100.00;99540.30;1699263;84;20122;-71
2022/06/02 02:41:14;;;;;;;;;;;;;;;16.56;100.00;99541.02;1699333;84;20139;-69
2022/06/02 02:43:50;;;;;;;;;;;;;;;16.54;100.00;99544.72;1699676;84;20114;-70
2022/06/02 02:46:26;;;;;;;;;;;;;;;16.54;100.00;99546.91;1699220;84;20126;-70
2022/06/02 02:48:59;;;;;;;;;;;;;;;16.58;100.00;99546.42;1699450;84;21089;-68
2022/06/02 02:51:45;;;;;;;;;;;;;;;16.59;100.00;99545.84;1699017;84;20122;-69
2022/06/02 02:54:24;;;;;;;;;;;;;;;16.59;100.00;99541.69;1698507;84;20114;-69
2022/06/02 02:56:58;;;;;;;;;;;;;;;16.59;100.00;99542.48;1699646;84;22025;-72
2022/06/02 02:59:45;;;;;;;;;;;;;;;16.58;100.00;99545.04;1699905;84;20101;-72
2022/06/02 03:02:18;;;;;;;;;;;;;;;16.58;100.00;99550.58;1699581;84;21544;-69
2022/06/02 03:05:04;;;;;;;;;;;;;;;16.64;100.00;99554.73;1650283;84;20153;-68
2022/06/02 03:07:31;;;;;;;;;;;;;;;16.72;100.00;99564.84;1699658;84;20110;-76
2022/06/02 03:10:09;;;;;;;;;;;;;;;16.81;100.00;99569.61;1699501;84;20769;-69
2022/06/02 03:12:48;;;;;;;;;;;;;;;16.90;100.00;99565.86;1699062;84;20469;-69
2022/06/02 03:15:28;;;;;;;;;;;;;;;17.00;100.00;99567.52;1699588;84;20787;-70
2022/06/02 03:18:35;;;;;;;;;;;;;;;17.10;100.00;99572.53;1683732;84;20466;-70
2022/06/02 03:21:05;;;;;;;;;;;;;;;17.21;100.00;99578.34;1699465;84;20437;-70
2022/06/02 03:23:44;;;;;;;;;;;;;;;17.23;100.00;99571.05;1699678;84;20132;-70
2022/06/02 03:26:47;;;;;;;;;;;;;;;17.16;100.00;99571.67;1699894;84;20113;-70
2022/06/02 03:29:18;;;;;;;;;;;;;;;17.09;100.00;99570.92;1719043;83;21168;-71
2022/06/02 03:31:50;;;;;;;;;;;;;;;16.97;100.00;99571.00;1722094;83;20089;-71
2022/06/02 03:34:33;;;;;;;;;;;;;;;16.88;100.00;99573.14;1722467;83;20148;-71
2022/06/02 03:37:15;;;;;;;;;;;;;;;16.81;100.00;99575.16;1722705;83;20440;-69
2022/06/02 03:40:01;;;;;;;;;;;;;;;16.75;100.00;99572.42;1721947;83;20097;-69
2022/06/02 03:42:39;;;;;;;;;;;;;;;16.77;100.00;99567.91;1722496;83;21096;-70
2022/06/02 03:45:12;;;;;;;;;;;;;;;16.82;100.00;99570.41;1722419;83;20160;-69
2022/06/02 03:47:52;;;;;;;;;;;;;;;16.84;100.00;99569.48;1698373;83;20089;-71
2022/06/02 03:50:34;;;;;;;;;;;;;;;16.83;100.00;99576.98;1722290;83;20101;-70
2022/06/02 03:53:30;;;;;;;;;;;;;;;16.83;100.00;99576.98;1722492;83;20093;-69
2022/06/02 03:56:12;;;;;;;;;;;;;;;16.78;100.00;99575.06;1722538;83;21276;-69
2022/06/02 03:59:04;;;;;;;;;;;;;;;16.74;100.00;99576.97;1722292;83;20132;-68
2022/06/02 04:01:34;;;;;;;;;;;;;;;16.72;100.00;99580.09;1722305;83;20109;-69
2022/06/02 04:04:28;;;;;;;;;;;;;;;16.69;100.00;99580.00;1722540;83;20448;-68
2022/06/02 04:07:17;;;;;;;;;;;;;;;16.70;100.00;99580.22;1722579;83;20101;-68
2022/06/02 04:09:51;;;;;;;;;;;;;;;16.73;100.00;99583.67;1722307;83;21179;-69
2022/06/02 04:16:03;;;;;;;;;;;;;;;16.90;100.00;99585.27;1722398;83;20421;-68
2022/06/02 04:18:50;;;;;;;;;;;;;;;17.05;100.00;99592.80;1729243;83;20145;-72
2022/06/02 04:21:28;;;;;;;;;;;;;;;17.16;100.00;99595.25;1730326;83;20125;-72
2022/06/02 04:24:20;;;;;;;;;;;;;;;17.29;100.00;99587.64;1720519;83;21168;-68
2022/06/02 04:26:54;;;;;;;;;;;;;;;17.40;100.00;99583.13;1696078;84;20131;-68
2022/06/02 04:29:45;;;;;;;;;;;;;;;17.54;100.00;99582.08;1695994;83;20087;-68
2022/06/02 04:32:41;;;;;;;;;;;;;;;17.67;100.00;99587.77;1695770;84;20166;-70
2022/06/02 04:35:21;;;;;;;;;;;;;;;17.87;100.00;99595.55;1695499;84;20158;-72
2022/06/02 04:38:10;;;;;;;;;;;;;;;18.10;100.00;99594.23;1694752;84;20110;-69
2022/06/02 04:40:59;;;;;;;;;;;;;;;18.30;100.00;99595.05;1676566;84;20115;-70
2022/06/02 04:43:29;;;;;;;;;;;;;;;18.44;100.00;99600.89;1696311;84;20478;-69
2022/06/02 04:46:35;;;;;;;;;;;;;;;18.53;100.00;99591.70;1696250;84;20142;-69
2022/06/02 04:49:08;;;;;;;;;;;;;;;18.59;100.00;99596.38;1696206;84;20147;-68
2022/06/02 04:51:50;;;;;;;;;;;;;;;18.65;100.00;99596.34;1696211;84;21235;-67
2022/06/02 04:54:36;;;;;;;;;;;;;;;18.70;100.00;99596.03;1696457;84;20112;-68
2022/06/02 04:57:25;;;;;;;;;;;;;;;18.75;100.00;99594.34;1696188;84;20139;-69
2022/06/02 05:00:12;;;;;;;;;;;;;;;18.79;100.00;99589.65;1694546;84;20151;-69
2022/06/02 05:02:57;;;;;;;;;;;;;;;18.85;100.00;99596.52;1721031;83;20089;-67
2022/06/02 05:05:40;;;;;;;;;;;;;;;18.93;100.00;99601.62;1701818;83;21161;-68
2022/06/02 05:08:23;;;;;;;;;;;;;;;19.01;99.04;99595.81;1722187;83;20165;-66
2022/06/02 05:11:28;;;;;;;;;;;;;;;19.11;98.36;99596.56;1721639;83;20121;-68
2022/06/02 05:14:05;;;;;;;;;;;;;;;19.21;97.37;99592.34;1721984;83;20124;-70
2022/06/02 05:16:48;;;;;;;;;;;;;;;19.31;97.36;99585.35;1692789;83;20085;-68
2022/06/02 05:19:25;;;;;;;;;;;;;;;19.42;97.29;99582.16;1715781;83;21229;-68
2022/06/02 05:22:17;;;;;;;;;;;;;;;19.53;96.07;99578.98;1721970;83;20443;-68
2022/06/02 05:24:59;;;;;;;;;;;;;;;19.61;94.80;99570.95;1721941;83;20109;-69
2022/06/02 05:27:44;;;;;;;;;;;;;;;19.73;95.02;99567.91;1721987;82;20637;-68
2022/06/02 05:30:37;;;;;;;;;;;;;;;19.86;93.37;99565.70;1701955;83;20492;-70
2022/06/02 05:33:23;;;;;;;;;;;;;;;19.96;92.30;99562.25;1701482;84;21144;-69
2022/06/02 05:36:00;;;;;;;;;;;;;;;20.05;90.32;99564.76;1701785;83;20448;-67
2022/06/02 05:39:03;;;;;;;;;;;;;;;20.15;91.43;99564.68;1701617;84;20145;-67
2022/06/02 05:41:52;;;;;;;;;;;;;;;20.27;91.33;99563.01;1701620;84;20117;-67
2022/06/02 05:44:34;;;;;;;;;;;;;;;20.40;90.48;99559.62;1679497;83;20449;-67
2022/06/02 05:47:04;;;;;;;;;;;;;;;20.50;88.42;99558.72;1701448;83;21144;-65
2022/06/02 05:49:44;;;;;;;;;;;;;;;20.56;87.83;99562.18;1701066;84;20097;-66
2022/06/02 05:52:14;;;;;;;;;;;;;;;20.68;87.62;99570.88;1701185;84;20438;-66
2022/06/02 05:55:04;;;;;;;;;;;;;;;20.78;87.55;99568.78;1700983;84;20130;-66
2022/06/02 05:57:44;;;;;;;;;;;;;;;20.89;86.46;99568.27;1701388;84;20118;-66
2022/06/02 06:00:32;;;;;;;;;;;;;;;21.04;86.09;99572.80;1667583;86;21169;-66
2022/06/02 06:03:08;;;;;;;;;;;;;;;21.09;84.16;99573.03;1642613;86;20433;-68
2022/06/02 06:05:59;;;;;;;;;;;;;;;21.13;84.10;99579.45;1679100;85;20088;-70
2022/06/02 06:08:29;;;;;;;;;;;;;;;21.18;84.20;99574.91;1679269;85;20644;-67
2022/06/02 06:11:11;;;;;;;;;;;;;;;21.29;84.27;99584.20;1678827;85;20131;-69
2022/06/02 06:13:42;;;;;;;;;;;;;;;21.39;83.24;99581.26;1678994;85;21280;-70
2022/06/02 06:16:18;;;;;;;;;;;;;;;21.51;82.76;99585.14;1678747;85;20092;-67
2022/06/02 06:18:55;;;;;;;;;;;;;;;21.61;81.73;99590.00;1661344;85;20104;-66
2022/06/02 06:21:34;;;;;;;;;;;;;;;21.74;82.01;99587.09;1667104;85;20675;-66
2022/06/02 06:24:19;;;;;;;;;;;;;;;21.87;81.19;99582.58;1666724;85;20095;-66
2022/06/02 06:26:49;;;;;;;;;;;;;;;22.01;80.88;99590.45;1667063;86;21153;-66
2022/06/02 06:29:25;;;;;;;;;;;;;;;22.08;78.48;99591.88;1686422;82;20537;-67
2022/06/02 06:32:02;;;;;;;;;;;;;;;22.11;78.74;99593.09;1668606;86;20420;-68
2022/06/02 06:34:44;;;;;;;;;;;;;;;22.17;78.28;99587.94;1706386;84;20087;-68
2022/06/02 06:37:35;;;;;;;;;;;;;;;22.26;78.50;99598.16;1702273;84;20090;-67
2022/06/02 06:40:14;;;;;;;;;;;;;;;22.38;78.85;99597.81;1668475;86;21234;-67
2022/06/02 06:42:55;;;;;;;;;;;;;;;22.51;79.45;99596.27;1699277;84;20095;-67
2022/06/02 06:45:36;;;;;;;;;;;;;;;22.64;77.37;99595.27;1695991;84;20091;-66
2022/06/02 06:48:16;;;;;;;;;;;;;;;22.63;77.37;99594.47;1696692;84;20587;-68
2022/06/02 06:50:55;;;;;;;;;;;;;;;22.62;77.51;99597.06;1696455;84;20119;-65
2022/06/02 06:53:40;;;;;;;;;;;;;;;22.64;77.30;99590.48;1695945;84;21102;-64
2022/06/02 06:56:16;;;;;;;;;;;;;;;22.70;76.11;99594.49;1676908;84;20151;-64
2022/06/02 06:59:10;;;;;;;;;;;;;;;22.74;76.20;99597.30;1695903;84;20458;-65
2022/06/02 07:01:59;;;;;;;;;;;;;;;22.86;73.91;99599.76;1669137;85;20124;-66
2022/06/02 07:04:46;;;;;;;;;;;;;;;22.96;74.75;99601.77;1669052;86;20124;-66
2022/06/02 07:07:22;;;;;;;;;;;;;;;23.07;73.25;99598.99;1674414;84;21340;-66
2022/06/02 07:10:16;;;;;;;;;;;;;;;23.14;71.67;99600.97;1696351;84;20123;-65
2022/06/02 07:12:59;;;;;;;;;;;;;;;23.21;74.92;99612.17;1696585;84;20095;-65
2022/06/02 07:15:44;;;;;;;;;;;;;;;23.37;73.15;99604.18;1676651;84;20764;-65
2022/06/02 07:18:18;;;;;;;;;;;;;;;23.51;73.33;99603.38;1696479;84;20115;-66
2022/06/02 07:21:04;;;;;;;;;;;;;;;23.66;73.65;99610.00;1696026;84;21171;-70
2022/06/02 07:23:52;;;;;;;;;;;;;;;23.77;72.46;99609.95;1696555;84;20075;-68
2022/06/02 07:26:38;;;;;;;;;;;;;;;23.86;71.04;99606.73;1694792;84;20087;-71
2022/06/02 07:29:25;;;;;;;;;;;;;;;23.97;71.43;99606.11;1701911;83;21466;-69
2022/06/02 07:32:02;;;;;;;;;;;;;;;24.12;70.83;99604.06;1716594;83;20129;-71
2022/06/02 07:34:48;;;;;;;;;;;;;;;24.25;71.43;99605.23;1716570;83;21231;-68
2022/06/02 07:37:30;;;;;;;;;;;;;;;24.31;70.03;99605.80;1716524;83;20125;-68
2022/06/02 07:40:16;;;;;;;;;;;;;;;24.38;68.79;99610.59;1717202;83;20153;-68
2022/06/02 07:42:55;;;;;;;;;;;;;;;24.46;69.12;99612.77;1716568;83;20101;-68
2022/06/02 07:45:38;;;;;;;;;;;;;;;24.60;69.91;99613.49;1716673;83;20126;-67
2022/06/02 07:48:17;;;;;;;;;;;;;;;24.73;68.80;99611.63;1717081;82;21151;-68
2022/06/02 07:50:47;;;;;;;;;;;;;;;24.84;67.64;99603.31;1716597;83;20485;-68
2022/06/02 07:53:23;;;;;;;;;;;;;;;24.96;67.31;99614.09;1716923;82;20126;-69
2022/06/02 07:56:06;;;;;;;;;;;;;;;25.07;65.88;99615.43;1700315;83;20162;-69
2022/06/02 07:59:11;;;;;;;;;;;;;;;25.04;65.49;99612.64;1708966;83;20108;-68
2022/06/02 08:02:07;;;;;;;;;;;;;;;25.07;64.71;99621.05;1704128;83;21177;-68
2022/06/02 08:05:00;;;;;;;;;;;;;;;25.22;65.43;99618.94;1719077;83;20101;-68
2022/06/02 08:07:34;;;;;;;;;;;;;;;25.48;65.14;99614.08;1722056;83;20089;-72
2022/06/02 08:10:04;;;;;;;;;;;;;;;25.69;61.49;99625.77;1721646;83;20598;-71
2022/06/02 08:12:56;;;;;;;;;;;;;;;25.70;62.65;99622.36;1713498;83;20150;-74
2022/06/02 08:15:35;;;;;;;;;;;;;;;25.71;61.56;99628.97;1722004;83;22111;-67
2022/06/02 08:18:11;;;;;;;;;;;;;;;25.70;61.26;99633.60;1719064;83;20133;-67
2022/06/02 08:20:44;;;;;;;;;;;;;;;25.75;62.33;99628.33;1720330;83;20085;-69
2022/06/02 08:23:26;;;;;;;;;;;;;;;25.92;61.70;99626.56;1722092;83;20121;-72
2022/06/02 08:25:57;;;;;;;;;;;;;;;26.06;61.49;99634.82;1722145;83;20093;-72
2022/06/02 08:28:40;;;;;;;;;;;;;;;26.20;60.08;99628.24;1722007;82;21168;-74
2022/06/02 08:31:34;;;;;;;;;;;;;;;26.43;60.65;99627.60;1721554;83;20112;-76
2022/06/02 08:34:13;;;;;;;;;;;;;;;26.77;59.73;99629.74;1722024;83;20149;-77
2022/06/02 08:37:03;;;;;;;;;;;;;;;27.04;57.97;99624.77;1722091;83;20113;-78
2022/06/02 08:39:42;;;;;;;;;;;;;;;27.22;59.17;99627.48;1690125;84;20105;-76
2022/06/02 08:42:33;;;;;;;;;;;;;;;27.43;59.18;99629.77;1715212;83;21164;-70
2022/06/02 08:45:27;;;;;;;;;;;;;;;27.71;55.32;99629.31;1721309;83;20087;-70
2022/06/02 08:48:22;;;;;;;;;;;;;;;27.97;54.26;99638.10;1722118;83;20443;-69
2022/06/02 08:50:58;;;;;;;;;;;;;;;28.24;52.48;99630.36;1705866;83;20089;-69
2022/06/02 08:54:04;;;;;;;;;;;;;;;28.53;51.49;99623.48;1722096;83;20097;-69
2022/06/02 08:56:48;;;;;;;;;;;;;;;28.91;50.26;99629.52;1722015;83;21161;-70
2022/06/02 08:59:29;;;;;;;;;;;;;;;29.29;47.49;99621.36;1705021;83;20085;-70
2022/06/02 09:02:25;;;;;;;;;;;;;;;29.27;47.04;99625.25;1722159;83;20455;-70
2022/06/02 09:05:29;;;;;;;;;;;;;;;29.28;47.79;99620.39;1722071;83;20093;-70
2022/06/02 09:08:18;;;;;;;;;;;;;;;29.50;46.67;99620.84;1722207;83;20165;-67
2022/06/02 09:10:48;;;;;;;;;;;;;;;29.86;48.35;99618.50;1721837;83;21217;-70
2022/06/02 09:13:44;;;;;;;;;;;;;;;30.20;48.22;99618.77;1722139;83;20089;-72
2022/06/02 09:16:19;;;;;;;;;;;;;;;30.51;48.00;99621.92;1703428;82;20107;-70
2022/06/02 09:19:18;;;;;;;;;;;;;;;30.77;45.95;99619.94;1693333;85;20138;-76
2022/06/02 09:21:54;;;;;;;;;;;;;;;30.91;44.14;99617.30;1693274;85;20075;-73
2022/06/02 09:24:33;;;;;;;;;;;;;;;30.78;43.38;99613.66;1692249;85;21168;-76
2022/06/02 09:27:36;;;;;;;;;;;;;;;30.57;44.35;99614.30;1693454;85;20454;-73
2022/06/02 09:30:18;;;;;;;;;;;;;;;30.72;45.10;99629.00;1693361;84;20249;-73
2022/06/02 09:36:29;;;;;;;;;;;;;;;30.61;43.70;99621.47;1706699;83;20115;-73
2022/06/02 09:39:29;;;;;;;;;;;;;;;30.42;45.88;99611.87;1693342;84;21158;-73
2022/06/02 09:42:03;;;;;;;;;;;;;;;30.18;45.33;99613.37;1693158;84;20138;-73
2022/06/02 09:44:42;;;;;;;;;;;;;;;29.67;47.18;99615.17;1700812;82;20093;-72
2022/06/02 09:47:44;;;;;;;;;;;;;;;29.37;47.59;99607.23;1693234;85;20215;-73
2022/06/02 09:50:20;;;;;;;;;;;;;;;29.18;48.00;99607.48;1697552;82;20273;-73
2022/06/02 09:53:13;;;;;;;;;;;;;;;29.00;46.88;99597.83;1719626;83;21133;-75
2022/06/02 09:56:01;;;;;;;;;;;;;;;28.70;48.72;99605.98;1722136;83;20436;-70
2022/06/02 09:58:45;;;;;;;;;;;;;;;28.74;51.45;99599.02;1722487;83;20122;-73
2022/06/02 10:01:25;;;;;;;;;;;;;;;29.21;49.46;99596.70;1718699;83;20161;-70
2022/06/02 10:03:58;;;;;;;;;;;;;;;29.61;47.63;99591.48;1722238;83;20081;-70
2022/06/02 10:06:46;;;;;;;;;;;;;;;29.96;46.38;99580.63;1722052;83;21111;-70
2022/06/02 10:09:17;;;;;;;;;;;;;;;30.29;47.35;99582.73;1719637;83;20093;-68
2022/06/02 10:11:55;;;;;;;;;;;;;;;30.60;44.79;99578.80;1722258;83;20149;-67
2022/06/02 10:14:25;;;;;;;;;;;;;;;30.67;46.72;99581.39;1722373;83;20089;-67
2022/06/02 10:16:57;;;;;;;;;;;;;;;30.80;45.38;99569.45;1722093;83;20100;-67
2022/06/02 10:19:30;;;;;;;;;;;;;;;30.84;44.67;99573.59;1722128;83;21789;-67
2022/06/02 10:22:06;;;;;;;;;;;;;;;30.63;44.96;99572.20;1722045;83;20152;-68
2022/06/02 10:24:54;;;;;;;;;;;;;;;30.43;45.35;99566.73;1722104;83;20141;-68
2022/06/02 10:27:40;;;;;;;;;;;;;;;30.46;44.62;99563.00;1722047;82;20145;-67
2022/06/02 10:30:13;;;;;;;;;;;;;;;30.45;45.17;99560.63;1720539;83;20167;-68
2022/06/02 10:33:13;;;;;;;;;;;;;;;30.45;44.67;99551.50;1717215;83;21933;-69
2022/06/02 10:35:52;;;;;;;;;;;;;;;30.42;44.94;99550.20;1716724;83;20432;-69
2022/06/02 10:38:41;;;;;;;;;;;;;;;30.60;44.35;99553.31;1665172;83;20126;-70
2022/06/02 10:41:17;;;;;;;;;;;;;;;30.77;42.73;99546.27;1716724;83;20102;-68
2022/06/02 10:44:04;;;;;;;;;;;;;;;30.66;42.56;99542.97;1716843;83;20121;-69
2022/06/02 10:46:46;;;;;;;;;;;;;;;30.49;43.07;99547.94;1698335;83;21342;-69
2022/06/02 10:49:45;;;;;;;;;;;;;;;30.43;45.76;99543.28;1697882;83;20458;-69
2022/06/02 10:52:18;;;;;;;;;;;;;;;30.59;46.74;99536.14;1689469;83;20142;-74
2022/06/02 10:54:52;;;;;;;;;;;;;;;30.84;43.79;99530.45;1714194;83;20149;-74
2022/06/02 10:57:59;;;;;;;;;;;;;;;30.96;43.58;99522.40;1711128;84;20146;-71
2022/06/02 11:00:32;;;;;;;;;;;;;;;31.01;42.91;99518.99;1711278;84;21146;-72
2022/06/02 11:03:25;;;;;;;;;;;;;;;31.19;42.24;99520.02;1710798;83;20118;-72
2022/06/02 11:06:21;;;;;;;;;;;;;;;31.20;40.98;99508.02;1711358;83;20472;-75
2022/06/02 11:09:02;;;;;;;;;;;;;;;31.28;40.79;99505.73;1692548;84;20166;-74
2022/06/02 11:11:42;;;;;;;;;;;;;;;31.46;41.77;99503.87;1711333;83;20493;-72
2022/06/02 11:14:12;;;;;;;;;;;;;;;31.47;41.05;99491.90;1710779;83;21152;-72
2022/06/02 11:16:54;;;;;;;;;;;;;;;31.51;41.55;99482.63;1711274;84;20149;-73
2022/06/02 11:19:57;;;;;;;;;;;;;;;31.49;39.79;99485.93;1710499;83;20137;-72
2022/06/02 11:22:30;;;;;;;;;;;;;;;31.34;39.91;99489.72;1711398;84;20142;-71
2022/06/02 11:25:08;;;;;;;;;;;;;;;31.16;41.09;99483.28;1711507;84;20157;-75
2022/06/02 11:28:08;;;;;;;;;;;;;;;31.20;42.64;99483.92;1711225;83;20154;-77
2022/06/02 11:31:06;;;;;;;;;;;;;;;31.19;40.09;99481.73;1708135;83;20253;-73
2022/06/02 11:34:09;;;;;;;;;;;;;;;31.12;38.47;99476.91;1694028;84;20120;-75
2022/06/02 11:37:05;;;;;;;;;;;;;;;31.05;39.14;99482.20;1699228;84;20443;-85
2022/06/02 11:39:47;;;;;;;;;;;;;;;31.13;41.80;99472.85;1699281;84;20127;-83
2022/06/02 11:42:46;;;;;;;;;;;;;;;31.25;40.38;99473.42;1699130;84;21541;-85
2022/06/02 11:45:37;;;;;;;;;;;;;;;31.44;39.37;99473.75;1699257;84;20151;-83
2022/06/02 11:48:22;;;;;;;;;;;;;;;31.59;40.45;99459.84;1699335;84;20147;-83
2022/06/02 11:51:13;;;;;;;;;;;;;;;31.74;37.44;99463.78;1699134;84;20628;-86
2022/06/02 11:54:09;;;;;;;;;;;;;;;31.69;37.65;99458.70;1699129;84;20499;-87
2022/06/02 11:56:57;;;;;;;;;;;;;;;31.59;38.78;99461.89;1699047;84;21557;-81
2022/06/02 11:59:45;;;;;;;;;;;;;;;31.74;39.06;99462.98;1699145;84;20506;-82
2022/06/02 12:02:34;;;;;;;;;;;;;;;31.71;36.29;99457.61;1689197;85;20192;-81
2022/06/02 12:05:38;;;;;;;;;;;;;;;31.65;37.61;99451.54;1697842;84;20474;-83
2022/06/02 12:08:42;;;;;;;;;;;;;;;31.89;38.67;99448.41;1699167;84;20152;-82
2022/06/02 12:11:25;;;;;;;;;;;;;;;31.90;37.05;99449.19;1698511;84;21572;-79
2022/06/02 12:14:16;;;;;;;;;;;;;;;31.84;37.75;99446.95;1698231;84;20158;-77
2022/06/02 12:17:09;;;;;;;;;;;;;;;31.93;36.71;99443.38;1699145;84;20127;-80
2022/06/02 12:19:47;;;;;;;;;;;;;;;32.09;37.78;99443.16;1662641;86;20106;-79
2022/06/02 12:22:32;;;;;;;;;;;;;;;32.22;36.79;99444.52;1690026;84;20143;-83
2022/06/02 12:25:14;;;;;;;;;;;;;;;32.38;37.93;99438.58;1699670;84;21051;-79
2022/06/02 12:28:19;;;;;;;;;;;;;;;32.65;35.91;99422.27;1663064;84;20101;-78
2022/06/02 12:31:04;;;;;;;;;;;;;;;32.46;36.66;99431.98;1699453;84;20115;-78
2022/06/02 12:33:57;;;;;;;;;;;;;;;32.24;37.16;99424.18;1697038;84;20845;-80
2022/06/02 12:36:30;;;;;;;;;;;;;;;31.90;37.07;99420.18;1699322;84;20103;-80
2022/06/02 12:39:24;;;;;;;;;;;;;;;31.38;38.03;99420.91;1694576;84;21773;-80
2022/06/02 12:42:16;;;;;;;;;;;;;;;30.96;38.82;99418.32;1699157;84;20119;-79
2022/06/02 12:45:02;;;;;;;;;;;;;;;30.86;39.40;99420.89;1699202;84;20123;-79
2022/06/02 12:47:54;;;;;;;;;;;;;;;30.93;39.58;99415.61;1699291;84;20128;-80
2022/06/02 12:50:36;;;;;;;;;;;;;;;30.91;39.76;99417.48;1699190;84;20143;-79
2022/06/02 12:53:31;;;;;;;;;;;;;;;31.12;40.16;99403.98;1686643;83;21240;-79
2022/06/02 12:56:17;;;;;;;;;;;;;;;31.42;40.60;99409.59;1698122;84;20162;-78
2022/06/02 12:58:54;;;;;;;;;;;;;;;31.82;39.88;99399.80;1699445;84;20086;-79
2022/06/02 13:01:32;;;;;;;;;;;;;;;32.06;38.04;99403.55;1699896;84;20103;-81
2022/06/02 13:04:11;;;;;;;;;;;;;;;32.17;37.80;99409.60;1699838;84;20140;-80
2022/06/02 13:07:10;;;;;;;;;;;;;;;32.33;38.29;99406.55;1699536;84;21711;-81
2022/06/02 13:09:57;;;;;;;;;;;;;;;32.48;36.43;99413.84;1699491;84;20130;-81
2022/06/02 13:12:37;;;;;;;;;;;;;;;32.33;37.48;99402.29;1699570;84;20099;-81
2022/06/02 13:15:35;;;;;;;;;;;;;;;32.42;37.45;99404.34;1699762;84;20079;-81
2022/06/02 13:18:26;;;;;;;;;;;;;;;32.58;36.93;99397.61;1699505;84;20466;-80
2022/06/02 13:21:30;;;;;;;;;;;;;;;32.84;36.50;99393.28;1699453;84;21737;-79
2022/06/02 13:24:02;;;;;;;;;;;;;;;32.81;35.44;99396.44;1699519;84;20467;-80
2022/06/02 13:26:35;;;;;;;;;;;;;;;32.63;36.75;99394.94;1699811;84;20119;-79
2022/06/02 13:29:24;;;;;;;;;;;;;;;32.52;36.99;99390.97;1698688;83;20112;-79
2022/06/02 13:32:14;;;;;;;;;;;;;;;32.42;37.54;99390.14;1699673;84;20132;-80
2022/06/02 13:34:52;;;;;;;;;;;;;;;32.05;38.72;99396.30;1682224;84;20088;-80
2022/06/02 13:37:37;;;;;;;;;;;;;;;31.74;39.50;99384.95;1672976;85;20125;-79
2022/06/02 13:40:25;;;;;;;;;;;;;;;31.63;39.18;99388.78;1672891;85;20199;-80
2022/06/02 13:42:58;;;;;;;;;;;;;;;31.55;39.30;99389.68;1673413;86;20483;-78
2022/06/02 13:45:59;;;;;;;;;;;;;;;31.52;39.92;99392.81;1672946;86;20133;-82
2022/06/02 13:48:44;;;;;;;;;;;;;;;31.56;38.97;99387.64;1672955;85;21170;-78
2022/06/02 13:51:33;;;;;;;;;;;;;;;31.73;38.84;99383.37;1656608;86;20106;-81
2022/06/02 13:57:31;;;;;;;;;;;;;;;32.00;36.75;99362.20;1692559;85;20882;-81
2022/06/02 14:00:11;;;;;;;;;;;;;;;31.74;36.99;99357.99;1664560;86;20086;-84
2022/06/02 14:02:58;;;;;;;;;;;;;;;31.15;38.59;99362.62;1693819;84;21092;-81
2022/06/02 14:05:52;;;;;;;;;;;;;;;30.51;40.58;99366.22;1690958;85;20143;-73
2022/06/02 14:08:41;;;;;;;;;;;;;;;29.96;41.36;99383.95;1636041;87;20109;-77
2022/06/02 14:11:35;;;;;;;;;;;;;;;29.52;42.28;99377.97;1650748;87;20433;-82
2022/06/02 14:14:14;;;;;;;;;;;;;;;29.34;43.14;99379.10;1660318;85;20129;-82
2022/06/02 14:16:50;;;;;;;;;;;;;;;29.25;43.52;99384.61;1664758;86;21157;-84
2022/06/02 14:19:23;;;;;;;;;;;;;;;29.13;43.67;99375.45;1664670;86;20181;-83
2022/06/02 14:22:10;;;;;;;;;;;;;;;29.04;43.31;99362.58;1664820;86;20153;-79